sensor_id;sensor_type;location;lat;lon;timestamp;P1;durP1;ratioP1;P2;durP2;ratioP2
46745;SDS011;32493;50.514;9.678;2023-07-16T00:00:43;5.35;;;3.83;;
46745;SDS011;32493;50.514;9.678;2023-07-16T00:02:50;5.55;;;4.00;;
46745;SDS011;32493;50.514;9.678;2023-07-16T00:04:56;6.13;;;3.72;;
46745;SDS011;32493;50.514;9.678;2023-07-16T00:07:02;4.80;;;3.65;;
46745;SDS011;32493;50.514;9.678;2023-07-16T00:09:10;7.32;;;4.15;;
46745;SDS011;32493;50.514;9.678;2023-07-16T00:11:16;5.90;;;3.80;;
46745;SDS011;32493;50.514;9.678;2023-07-16T00:13:22;4.68;;;3.95;;
46745;SDS011;32493;50.514;9.678;2023-07-16T00:15:28;5.20;;;3.83;;
46745;SDS011;32493;50.514;9.678;2023-07-16T00:17:37;6.05;;;3.58;;
46745;SDS011;32493;50.514;9.678;2023-07-16T00:19:44;4.25;;;3.53;;
46745;SDS011;32493;50.514;9.678;2023-07-16T00:21:50;6.40;;;3.78;;
46745;SDS011;32493;50.514;9.678;2023-07-16T00:23:58;6.35;;;3.90;;
46745;SDS011;32493;50.514;9.678;2023-07-16T00:26:08;6.22;;;3.95;;
46745;SDS011;32493;50.514;9.678;2023-07-16T00:28:15;4.53;;;3.65;;
46745;SDS011;32493;50.514;9.678;2023-07-16T00:30:22;3.87;;;3.47;;
46745;SDS011;32493;50.514;9.678;2023-07-16T00:32:29;3.88;;;3.15;;
46745;SDS011;32493;50.514;9.678;2023-07-16T00:34:38;5.97;;;3.38;;
46745;SDS011;32493;50.514;9.678;2023-07-16T00:36:46;6.07;;;3.30;;
46745;SDS011;32493;50.514;9.678;2023-07-16T00:38:54;4.13;;;3.20;;
46745;SDS011;32493;50.514;9.678;2023-07-16T00:40:59;6.45;;;3.72;;
46745;SDS011;32493;50.514;9.678;2023-07-16T00:43:10;7.95;;;3.45;;
46745;SDS011;32493;50.514;9.678;2023-07-16T00:45:16;5.22;;;3.58;;
46745;SDS011;32493;50.514;9.678;2023-07-16T00:47:22;6.38;;;3.47;;
46745;SDS011;32493;50.514;9.678;2023-07-16T00:49:35;6.45;;;4.00;;
46745;SDS011;32493;50.514;9.678;2023-07-16T00:51:41;4.57;;;3.40;;
46745;SDS011;32493;50.514;9.678;2023-07-16T00:53:48;6.28;;;3.70;;
46745;SDS011;32493;50.514;9.678;2023-07-16T00:55:53;4.53;;;3.22;;
46745;SDS011;32493;50.514;9.678;2023-07-16T00:57:58;4.38;;;3.30;;
46745;SDS011;32493;50.514;9.678;2023-07-16T01:00:14;6.15;;;3.80;;
46745;SDS011;32493;50.514;9.678;2023-07-16T01:02:31;6.20;;;3.70;;
46745;SDS011;32493;50.514;9.678;2023-07-16T01:04:42;3.70;;;3.30;;
46745;SDS011;32493;50.514;9.678;2023-07-16T01:06:49;6.95;;;3.35;;
46745;SDS011;32493;50.514;9.678;2023-07-16T01:11:18;4.72;;;3.35;;
46745;SDS011;32493;50.514;9.678;2023-07-16T01:13:25;8.07;;;3.30;;
46745;SDS011;32493;50.514;9.678;2023-07-16T01:15:32;6.07;;;3.08;;
46745;SDS011;32493;50.514;9.678;2023-07-16T01:17:43;4.68;;;3.13;;
46745;SDS011;32493;50.514;9.678;2023-07-16T01:19:49;5.55;;;2.80;;
46745;SDS011;32493;50.514;9.678;2023-07-16T01:21:57;7.78;;;3.58;;
46745;SDS011;32493;50.514;9.678;2023-07-16T01:24:26;6.63;;;3.22;;
46745;SDS011;32493;50.514;9.678;2023-07-16T01:27:04;4.85;;;3.20;;
46745;SDS011;32493;50.514;9.678;2023-07-16T01:29:31;4.55;;;2.85;;
46745;SDS011;32493;50.514;9.678;2023-07-16T01:31:40;6.07;;;2.97;;
46745;SDS011;32493;50.514;9.678;2023-07-16T01:33:51;4.43;;;3.25;;
46745;SDS011;32493;50.514;9.678;2023-07-16T01:35:58;4.97;;;3.00;;
46745;SDS011;32493;50.514;9.678;2023-07-16T01:38:05;4.43;;;2.90;;
46745;SDS011;32493;50.514;9.678;2023-07-16T01:40:11;6.07;;;2.72;;
46745;SDS011;32493;50.514;9.678;2023-07-16T01:42:17;3.80;;;2.70;;
46745;SDS011;32493;50.514;9.678;2023-07-16T01:44:23;4.57;;;3.22;;
46745;SDS011;32493;50.514;9.678;2023-07-16T01:46:31;5.30;;;2.80;;
46745;SDS011;32493;50.514;9.678;2023-07-16T01:48:38;9.07;;;3.00;;
46745;SDS011;32493;50.514;9.678;2023-07-16T01:50:44;2.80;;;2.47;;
46745;SDS011;32493;50.514;9.678;2023-07-16T01:52:51;5.35;;;2.80;;
46745;SDS011;32493;50.514;9.678;2023-07-16T01:54:59;2.83;;;2.45;;
46745;SDS011;32493;50.514;9.678;2023-07-16T01:57:05;4.68;;;2.70;;
46745;SDS011;32493;50.514;9.678;2023-07-16T01:59:14;5.32;;;2.50;;
46745;SDS011;32493;50.514;9.678;2023-07-16T02:01:22;4.32;;;2.65;;
46745;SDS011;32493;50.514;9.678;2023-07-16T02:03:31;4.25;;;2.65;;
46745;SDS011;32493;50.514;9.678;2023-07-16T02:05:39;5.05;;;2.88;;
46745;SDS011;32493;50.514;9.678;2023-07-16T02:07:47;4.32;;;2.60;;
46745;SDS011;32493;50.514;9.678;2023-07-16T02:09:53;4.95;;;2.53;;
46745;SDS011;32493;50.514;9.678;2023-07-16T02:11:58;4.18;;;2.47;;
46745;SDS011;32493;50.514;9.678;2023-07-16T02:14:09;5.32;;;2.30;;
46745;SDS011;32493;50.514;9.678;2023-07-16T02:16:18;3.53;;;2.03;;
46745;SDS011;32493;50.514;9.678;2023-07-16T02:18:24;2.20;;;1.90;;
46745;SDS011;32493;50.514;9.678;2023-07-16T02:20:30;3.20;;;1.92;;
46745;SDS011;32493;50.514;9.678;2023-07-16T02:22:35;3.20;;;1.98;;
46745;SDS011;32493;50.514;9.678;2023-07-16T02:24:42;2.38;;;1.60;;
46745;SDS011;32493;50.514;9.678;2023-07-16T02:26:48;2.22;;;1.23;;
46745;SDS011;32493;50.514;9.678;2023-07-16T02:28:53;2.47;;;1.48;;
46745;SDS011;32493;50.514;9.678;2023-07-16T02:31:01;4.50;;;2.05;;
46745;SDS011;32493;50.514;9.678;2023-07-16T02:33:14;3.13;;;1.63;;
46745;SDS011;32493;50.514;9.678;2023-07-16T02:35:23;4.22;;;1.80;;
46745;SDS011;32493;50.514;9.678;2023-07-16T02:37:37;4.10;;;1.60;;
46745;SDS011;32493;50.514;9.678;2023-07-16T02:39:47;4.00;;;1.60;;
46745;SDS011;32493;50.514;9.678;2023-07-16T02:41:53;3.08;;;1.90;;
46745;SDS011;32493;50.514;9.678;2023-07-16T02:44:04;7.65;;;2.33;;
46745;SDS011;32493;50.514;9.678;2023-07-16T02:46:18;3.72;;;1.85;;
46745;SDS011;32493;50.514;9.678;2023-07-16T02:48:25;5.25;;;1.90;;
46745;SDS011;32493;50.514;9.678;2023-07-16T02:50:33;3.63;;;1.55;;
46745;SDS011;32493;50.514;9.678;2023-07-16T02:52:40;3.73;;;1.80;;
46745;SDS011;32493;50.514;9.678;2023-07-16T02:54:48;3.22;;;1.55;;
46745;SDS011;32493;50.514;9.678;2023-07-16T02:57:00;6.18;;;1.70;;
46745;SDS011;32493;50.514;9.678;2023-07-16T02:59:06;2.30;;;1.35;;
46745;SDS011;32493;50.514;9.678;2023-07-16T03:01:12;4.45;;;1.58;;
46745;SDS011;32493;50.514;9.678;2023-07-16T03:03:18;6.82;;;2.30;;
46745;SDS011;32493;50.514;9.678;2023-07-16T03:05:24;3.78;;;1.90;;
46745;SDS011;32493;50.514;9.678;2023-07-16T03:07:32;5.50;;;1.50;;
46745;SDS011;32493;50.514;9.678;2023-07-16T03:09:40;1.85;;;1.30;;
46745;SDS011;32493;50.514;9.678;2023-07-16T03:11:45;6.43;;;2.20;;
46745;SDS011;32493;50.514;9.678;2023-07-16T03:13:54;3.35;;;1.40;;
46745;SDS011;32493;50.514;9.678;2023-07-16T03:15:59;4.53;;;2.30;;
46745;SDS011;32493;50.514;9.678;2023-07-16T03:18:06;2.45;;;1.42;;
46745;SDS011;32493;50.514;9.678;2023-07-16T03:20:17;3.80;;;2.00;;
46745;SDS011;32493;50.514;9.678;2023-07-16T03:22:24;3.50;;;1.33;;
46745;SDS011;32493;50.514;9.678;2023-07-16T03:24:30;3.90;;;1.75;;
46745;SDS011;32493;50.514;9.678;2023-07-16T03:26:38;3.33;;;1.70;;
46745;SDS011;32493;50.514;9.678;2023-07-16T03:28:46;5.18;;;1.90;;
46745;SDS011;32493;50.514;9.678;2023-07-16T03:30:52;4.65;;;2.10;;
46745;SDS011;32493;50.514;9.678;2023-07-16T03:32:59;6.38;;;2.13;;
46745;SDS011;32493;50.514;9.678;2023-07-16T03:35:10;7.78;;;2.28;;
46745;SDS011;32493;50.514;9.678;2023-07-16T03:37:18;3.35;;;1.52;;
46745;SDS011;32493;50.514;9.678;2023-07-16T03:41:31;2.58;;;1.65;;
46745;SDS011;32493;50.514;9.678;2023-07-16T03:43:40;4.50;;;1.77;;
46745;SDS011;32493;50.514;9.678;2023-07-16T03:45:52;5.40;;;2.00;;
46745;SDS011;32493;50.514;9.678;2023-07-16T03:47:58;3.22;;;1.80;;
46745;SDS011;32493;50.514;9.678;2023-07-16T03:50:04;6.97;;;1.88;;
46745;SDS011;32493;50.514;9.678;2023-07-16T03:52:11;4.07;;;1.98;;
46745;SDS011;32493;50.514;9.678;2023-07-16T03:54:18;4.00;;;1.90;;
46745;SDS011;32493;50.514;9.678;2023-07-16T03:56:24;9.85;;;2.30;;
46745;SDS011;32493;50.514;9.678;2023-07-16T03:58:30;8.38;;;2.15;;
46745;SDS011;32493;50.514;9.678;2023-07-16T04:00:40;7.17;;;2.17;;
46745;SDS011;32493;50.514;9.678;2023-07-16T04:02:46;4.18;;;1.88;;
46745;SDS011;32493;50.514;9.678;2023-07-16T04:04:52;5.93;;;2.50;;
46745;SDS011;32493;50.514;9.678;2023-07-16T04:06:59;7.07;;;2.63;;
46745;SDS011;32493;50.514;9.678;2023-07-16T04:09:06;6.32;;;2.00;;
46745;SDS011;32493;50.514;9.678;2023-07-16T04:13:20;6.45;;;2.05;;
46745;SDS011;32493;50.514;9.678;2023-07-16T04:15:31;7.32;;;2.33;;
46745;SDS011;32493;50.514;9.678;2023-07-16T04:17:41;5.28;;;1.83;;
46745;SDS011;32493;50.514;9.678;2023-07-16T04:19:48;4.13;;;1.70;;
46745;SDS011;32493;50.514;9.678;2023-07-16T04:21:54;4.85;;;1.20;;
46745;SDS011;32493;50.514;9.678;2023-07-16T04:24:00;4.75;;;1.60;;
46745;SDS011;32493;50.514;9.678;2023-07-16T04:26:06;5.82;;;1.95;;
46745;SDS011;32493;50.514;9.678;2023-07-16T04:28:15;6.15;;;2.03;;
46745;SDS011;32493;50.514;9.678;2023-07-16T04:30:23;10.73;;;2.08;;
46745;SDS011;32493;50.514;9.678;2023-07-16T04:32:29;6.00;;;1.95;;
46745;SDS011;32493;50.514;9.678;2023-07-16T04:34:39;7.43;;;2.13;;
46745;SDS011;32493;50.514;9.678;2023-07-16T04:36:45;4.78;;;2.10;;
46745;SDS011;32493;50.514;9.678;2023-07-16T04:38:51;7.10;;;2.22;;
46745;SDS011;32493;50.514;9.678;2023-07-16T04:40:58;6.72;;;2.08;;
46745;SDS011;32493;50.514;9.678;2023-07-16T04:43:04;5.85;;;2.00;;
46745;SDS011;32493;50.514;9.678;2023-07-16T04:45:10;6.18;;;1.38;;
46745;SDS011;32493;50.514;9.678;2023-07-16T04:47:16;8.45;;;1.85;;
46745;SDS011;32493;50.514;9.678;2023-07-16T04:49:23;2.95;;;1.77;;
46745;SDS011;32493;50.514;9.678;2023-07-16T04:51:32;5.25;;;2.22;;
46745;SDS011;32493;50.514;9.678;2023-07-16T04:53:37;6.00;;;1.80;;
46745;SDS011;32493;50.514;9.678;2023-07-16T04:55:44;7.82;;;1.83;;
46745;SDS011;32493;50.514;9.678;2023-07-16T04:57:49;7.97;;;2.10;;
46745;SDS011;32493;50.514;9.678;2023-07-16T04:59:55;7.70;;;2.28;;
46745;SDS011;32493;50.514;9.678;2023-07-16T05:02:03;5.10;;;2.05;;
46745;SDS011;32493;50.514;9.678;2023-07-16T05:04:12;5.90;;;2.10;;
46745;SDS011;32493;50.514;9.678;2023-07-16T05:06:18;7.22;;;2.25;;
46745;SDS011;32493;50.514;9.678;2023-07-16T05:08:29;5.90;;;2.05;;
46745;SDS011;32493;50.514;9.678;2023-07-16T05:10:36;5.00;;;1.45;;
46745;SDS011;32493;50.514;9.678;2023-07-16T05:12:44;9.10;;;1.90;;
46745;SDS011;32493;50.514;9.678;2023-07-16T05:14:50;10.10;;;2.45;;
46745;SDS011;32493;50.514;9.678;2023-07-16T05:16:56;4.10;;;1.60;;
46745;SDS011;32493;50.514;9.678;2023-07-16T05:19:00;2.85;;;1.40;;
46745;SDS011;32493;50.514;9.678;2023-07-16T05:21:05;3.00;;;1.45;;
46745;SDS011;32493;50.514;9.678;2023-07-16T05:23:15;11.15;;;1.90;;
46745;SDS011;32493;50.514;9.678;2023-07-16T05:25:24;7.15;;;2.17;;
46745;SDS011;32493;50.514;9.678;2023-07-16T05:27:35;5.07;;;1.63;;
46745;SDS011;32493;50.514;9.678;2023-07-16T05:29:41;4.60;;;2.13;;
46745;SDS011;32493;50.514;9.678;2023-07-16T05:31:46;6.75;;;2.05;;
46745;SDS011;32493;50.514;9.678;2023-07-16T05:33:52;4.55;;;1.92;;
46745;SDS011;32493;50.514;9.678;2023-07-16T05:35:58;5.75;;;2.13;;
46745;SDS011;32493;50.514;9.678;2023-07-16T05:38:04;5.68;;;1.17;;
46745;SDS011;32493;50.514;9.678;2023-07-16T05:40:10;5.40;;;1.60;;
46745;SDS011;32493;50.514;9.678;2023-07-16T05:42:18;5.03;;;2.13;;
46745;SDS011;32493;50.514;9.678;2023-07-16T05:44:24;6.90;;;1.90;;
46745;SDS011;32493;50.514;9.678;2023-07-16T05:46:29;5.40;;;2.00;;
46745;SDS011;32493;50.514;9.678;2023-07-16T05:48:35;5.90;;;1.80;;
46745;SDS011;32493;50.514;9.678;2023-07-16T05:50:43;7.30;;;1.98;;
46745;SDS011;32493;50.514;9.678;2023-07-16T05:52:50;6.88;;;1.92;;
46745;SDS011;32493;50.514;9.678;2023-07-16T05:54:59;6.15;;;1.98;;
46745;SDS011;32493;50.514;9.678;2023-07-16T05:57:02;7.47;;;2.17;;
46745;SDS011;32493;50.514;9.678;2023-07-16T05:59:18;6.82;;;1.90;;
46745;SDS011;32493;50.514;9.678;2023-07-16T06:01:25;5.47;;;1.52;;
46745;SDS011;32493;50.514;9.678;2023-07-16T06:03:30;9.70;;;2.00;;
46745;SDS011;32493;50.514;9.678;2023-07-16T06:05:36;7.95;;;1.83;;
46745;SDS011;32493;50.514;9.678;2023-07-16T06:07:42;4.93;;;1.95;;
46745;SDS011;32493;50.514;9.678;2023-07-16T06:09:49;5.85;;;1.90;;
46745;SDS011;32493;50.514;9.678;2023-07-16T06:11:54;5.93;;;1.52;;
46745;SDS011;32493;50.514;9.678;2023-07-16T06:14:00;6.47;;;1.75;;
46745;SDS011;32493;50.514;9.678;2023-07-16T06:18:16;5.68;;;1.75;;
46745;SDS011;32493;50.514;9.678;2023-07-16T06:20:22;3.30;;;1.60;;
46745;SDS011;32493;50.514;9.678;2023-07-16T06:22:29;4.10;;;1.90;;
46745;SDS011;32493;50.514;9.678;2023-07-16T06:24:35;6.60;;;1.63;;
46745;SDS011;32493;50.514;9.678;2023-07-16T06:26:40;7.13;;;2.05;;
46745;SDS011;32493;50.514;9.678;2023-07-16T06:28:49;5.47;;;1.58;;
46745;SDS011;32493;50.514;9.678;2023-07-16T06:30:55;9.68;;;2.08;;
46745;SDS011;32493;50.514;9.678;2023-07-16T06:33:03;5.40;;;1.80;;
46745;SDS011;32493;50.514;9.678;2023-07-16T06:35:09;8.25;;;2.05;;
46745;SDS011;32493;50.514;9.678;2023-07-16T06:37:15;7.07;;;1.80;;
46745;SDS011;32493;50.514;9.678;2023-07-16T06:39:18;5.07;;;1.80;;
46745;SDS011;32493;50.514;9.678;2023-07-16T06:41:24;3.95;;;1.60;;
46745;SDS011;32493;50.514;9.678;2023-07-16T06:43:32;7.70;;;1.73;;
46745;SDS011;32493;50.514;9.678;2023-07-16T06:45:38;4.13;;;1.80;;
46745;SDS011;32493;50.514;9.678;2023-07-16T06:47:41;5.88;;;2.00;;
46745;SDS011;32493;50.514;9.678;2023-07-16T06:49:49;7.20;;;1.85;;
46745;SDS011;32493;50.514;9.678;2023-07-16T06:51:54;8.02;;;1.95;;
46745;SDS011;32493;50.514;9.678;2023-07-16T06:54:00;11.27;;;1.90;;
46745;SDS011;32493;50.514;9.678;2023-07-16T06:56:05;4.57;;;1.70;;
46745;SDS011;32493;50.514;9.678;2023-07-16T06:58:11;4.93;;;1.70;;
46745;SDS011;32493;50.514;9.678;2023-07-16T07:00:18;2.38;;;0.90;;
46745;SDS011;32493;50.514;9.678;2023-07-16T07:02:24;11.45;;;1.80;;
46745;SDS011;32493;50.514;9.678;2023-07-16T07:04:30;6.05;;;1.35;;
46745;SDS011;32493;50.514;9.678;2023-07-16T07:06:38;6.43;;;1.77;;
46745;SDS011;32493;50.514;9.678;2023-07-16T07:08:44;6.75;;;1.77;;
46745;SDS011;32493;50.514;9.678;2023-07-16T07:10:52;6.85;;;1.80;;
46745;SDS011;32493;50.514;9.678;2023-07-16T07:12:55;7.45;;;1.70;;
46745;SDS011;32493;50.514;9.678;2023-07-16T07:15:00;5.32;;;1.80;;
46745;SDS011;32493;50.514;9.678;2023-07-16T07:17:04;8.32;;;2.20;;
46745;SDS011;32493;50.514;9.678;2023-07-16T07:19:10;5.30;;;1.55;;
46745;SDS011;32493;50.514;9.678;2023-07-16T07:21:15;8.95;;;2.17;;
46745;SDS011;32493;50.514;9.678;2023-07-16T07:23:24;7.50;;;1.70;;
46745;SDS011;32493;50.514;9.678;2023-07-16T07:25:30;4.05;;;1.63;;
46745;SDS011;32493;50.514;9.678;2023-07-16T07:27:37;10.07;;;1.90;;
46745;SDS011;32493;50.514;9.678;2023-07-16T07:29:43;6.05;;;1.92;;
46745;SDS011;32493;50.514;9.678;2023-07-16T07:31:50;6.68;;;1.58;;
46745;SDS011;32493;50.514;9.678;2023-07-16T07:33:56;4.43;;;1.90;;
46745;SDS011;32493;50.514;9.678;2023-07-16T07:36:02;4.85;;;1.52;;
46745;SDS011;32493;50.514;9.678;2023-07-16T07:38:07;7.15;;;1.88;;
46745;SDS011;32493;50.514;9.678;2023-07-16T07:40:18;6.55;;;1.85;;
46745;SDS011;32493;50.514;9.678;2023-07-16T07:42:26;4.40;;;1.70;;
46745;SDS011;32493;50.514;9.678;2023-07-16T07:44:31;8.43;;;1.70;;
46745;SDS011;32493;50.514;9.678;2023-07-16T07:46:37;6.43;;;1.95;;
46745;SDS011;32493;50.514;9.678;2023-07-16T07:48:43;4.40;;;1.60;;
46745;SDS011;32493;50.514;9.678;2023-07-16T07:50:49;5.93;;;1.85;;
46745;SDS011;32493;50.514;9.678;2023-07-16T07:52:59;8.05;;;1.85;;
46745;SDS011;32493;50.514;9.678;2023-07-16T07:55:05;5.13;;;1.58;;
46745;SDS011;32493;50.514;9.678;2023-07-16T07:57:14;6.97;;;2.22;;
46745;SDS011;32493;50.514;9.678;2023-07-16T07:59:20;4.90;;;1.88;;
46745;SDS011;32493;50.514;9.678;2023-07-16T08:01:25;6.32;;;1.83;;
46745;SDS011;32493;50.514;9.678;2023-07-16T08:03:31;6.45;;;2.40;;
46745;SDS011;32493;50.514;9.678;2023-07-16T08:05:37;2.85;;;1.63;;
46745;SDS011;32493;50.514;9.678;2023-07-16T08:07:43;7.07;;;2.00;;
46745;SDS011;32493;50.514;9.678;2023-07-16T08:09:49;5.03;;;1.90;;
46745;SDS011;32493;50.514;9.678;2023-07-16T08:11:55;5.63;;;2.28;;
46745;SDS011;32493;50.514;9.678;2023-07-16T08:14:03;4.53;;;1.88;;
46745;SDS011;32493;50.514;9.678;2023-07-16T08:16:09;2.67;;;1.52;;
46745;SDS011;32493;50.514;9.678;2023-07-16T08:18:18;5.20;;;1.83;;
46745;SDS011;32493;50.514;9.678;2023-07-16T08:20:25;4.32;;;1.50;;
46745;SDS011;32493;50.514;9.678;2023-07-16T08:22:33;8.50;;;2.10;;
46745;SDS011;32493;50.514;9.678;2023-07-16T08:24:39;4.88;;;1.80;;
46745;SDS011;32493;50.514;9.678;2023-07-16T08:26:45;4.80;;;1.75;;
46745;SDS011;32493;50.514;9.678;2023-07-16T08:28:50;5.03;;;2.03;;
46745;SDS011;32493;50.514;9.678;2023-07-16T08:30:59;2.97;;;1.50;;
46745;SDS011;32493;50.514;9.678;2023-07-16T08:33:09;4.95;;;1.77;;
46745;SDS011;32493;50.514;9.678;2023-07-16T08:35:16;4.65;;;1.83;;
46745;SDS011;32493;50.514;9.678;2023-07-16T08:37:23;5.63;;;1.70;;
46745;SDS011;32493;50.514;9.678;2023-07-16T08:39:31;4.45;;;1.88;;
46745;SDS011;32493;50.514;9.678;2023-07-16T08:41:38;5.20;;;1.92;;
46745;SDS011;32493;50.514;9.678;2023-07-16T08:43:45;3.90;;;1.98;;
46745;SDS011;32493;50.514;9.678;2023-07-16T08:45:51;3.75;;;1.40;;
46745;SDS011;32493;50.514;9.678;2023-07-16T08:47:59;7.22;;;1.98;;
46745;SDS011;32493;50.514;9.678;2023-07-16T08:50:11;4.90;;;2.20;;
46745;SDS011;32493;50.514;9.678;2023-07-16T08:52:19;6.70;;;2.30;;
46745;SDS011;32493;50.514;9.678;2023-07-16T08:54:25;4.82;;;2.08;;
46745;SDS011;32493;50.514;9.678;2023-07-16T08:56:31;4.63;;;1.98;;
46745;SDS011;32493;50.514;9.678;2023-07-16T08:58:37;12.43;;;2.78;;
46745;SDS011;32493;50.514;9.678;2023-07-16T09:00:51;7.55;;;2.13;;
46745;SDS011;32493;50.514;9.678;2023-07-16T09:03:05;5.95;;;2.40;;
46745;SDS011;32493;50.514;9.678;2023-07-16T09:05:12;5.43;;;2.42;;
46745;SDS011;32493;50.514;9.678;2023-07-16T09:07:40;5.30;;;2.20;;
46745;SDS011;32493;50.514;9.678;2023-07-16T09:09:54;6.68;;;2.20;;
46745;SDS011;32493;50.514;9.678;2023-07-16T09:12:04;4.78;;;2.20;;
46745;SDS011;32493;50.514;9.678;2023-07-16T09:14:14;4.95;;;2.15;;
46745;SDS011;32493;50.514;9.678;2023-07-16T09:16:24;4.63;;;1.92;;
46745;SDS011;32493;50.514;9.678;2023-07-16T09:18:32;5.38;;;1.90;;
46745;SDS011;32493;50.514;9.678;2023-07-16T09:20:40;4.53;;;2.35;;
46745;SDS011;32493;50.514;9.678;2023-07-16T09:22:49;7.28;;;2.50;;
46745;SDS011;32493;50.514;9.678;2023-07-16T09:24:59;7.28;;;1.95;;
46745;SDS011;32493;50.514;9.678;2023-07-16T09:27:06;4.28;;;2.20;;
46745;SDS011;32493;50.514;9.678;2023-07-16T09:29:16;5.05;;;2.38;;
46745;SDS011;32493;50.514;9.678;2023-07-16T09:31:24;4.50;;;1.73;;
46745;SDS011;32493;50.514;9.678;2023-07-16T09:33:33;3.15;;;1.48;;
46745;SDS011;32493;50.514;9.678;2023-07-16T09:35:41;4.15;;;1.80;;
46745;SDS011;32493;50.514;9.678;2023-07-16T09:37:48;4.57;;;2.20;;
46745;SDS011;32493;50.514;9.678;2023-07-16T09:39:55;5.93;;;2.10;;
46745;SDS011;32493;50.514;9.678;2023-07-16T09:44:13;5.18;;;1.50;;
46745;SDS011;32493;50.514;9.678;2023-07-16T09:46:20;2.28;;;1.50;;
46745;SDS011;32493;50.514;9.678;2023-07-16T09:48:26;5.90;;;1.70;;
46745;SDS011;32493;50.514;9.678;2023-07-16T09:50:41;6.95;;;2.22;;
46745;SDS011;32493;50.514;9.678;2023-07-16T09:52:58;4.97;;;2.15;;
46745;SDS011;32493;50.514;9.678;2023-07-16T09:55:08;4.45;;;2.15;;
46745;SDS011;32493;50.514;9.678;2023-07-16T09:57:13;10.05;;;2.28;;
46745;SDS011;32493;50.514;9.678;2023-07-16T09:59:38;3.35;;;1.55;;
46745;SDS011;32493;50.514;9.678;2023-07-16T10:01:45;5.68;;;2.15;;
46745;SDS011;32493;50.514;9.678;2023-07-16T10:03:54;4.05;;;1.98;;
46745;SDS011;32493;50.514;9.678;2023-07-16T10:06:23;5.20;;;2.10;;
46745;SDS011;32493;50.514;9.678;2023-07-16T10:08:40;4.13;;;2.22;;
46745;SDS011;32493;50.514;9.678;2023-07-16T10:11:00;7.43;;;1.98;;
46745;SDS011;32493;50.514;9.678;2023-07-16T10:13:06;6.05;;;1.73;;
46745;SDS011;32493;50.514;9.678;2023-07-16T10:15:24;3.10;;;1.42;;
46745;SDS011;32493;50.514;9.678;2023-07-16T10:17:49;4.97;;;1.80;;
46745;SDS011;32493;50.514;9.678;2023-07-16T10:20:00;6.05;;;2.63;;
46745;SDS011;32493;50.514;9.678;2023-07-16T10:22:17;5.57;;;2.20;;
46745;SDS011;32493;50.514;9.678;2023-07-16T10:24:26;8.25;;;2.45;;
46745;SDS011;32493;50.514;9.678;2023-07-16T10:26:35;6.05;;;2.10;;
46745;SDS011;32493;50.514;9.678;2023-07-16T10:28:45;7.45;;;1.90;;
46745;SDS011;32493;50.514;9.678;2023-07-16T10:30:57;4.35;;;1.90;;
46745;SDS011;32493;50.514;9.678;2023-07-16T10:33:10;10.15;;;1.70;;
46745;SDS011;32493;50.514;9.678;2023-07-16T10:35:25;8.88;;;2.03;;
46745;SDS011;32493;50.514;9.678;2023-07-16T10:37:34;6.15;;;2.20;;
46745;SDS011;32493;50.514;9.678;2023-07-16T10:39:45;4.82;;;2.10;;
46745;SDS011;32493;50.514;9.678;2023-07-16T10:41:53;5.32;;;1.90;;
46745;SDS011;32493;50.514;9.678;2023-07-16T10:44:00;4.10;;;1.88;;
46745;SDS011;32493;50.514;9.678;2023-07-16T10:46:16;5.35;;;1.73;;
46745;SDS011;32493;50.514;9.678;2023-07-16T10:48:25;4.78;;;2.35;;
46745;SDS011;32493;50.514;9.678;2023-07-16T10:50:33;5.03;;;2.10;;
46745;SDS011;32493;50.514;9.678;2023-07-16T10:52:45;3.70;;;1.80;;
46745;SDS011;32493;50.514;9.678;2023-07-16T10:54:52;4.72;;;2.10;;
46745;SDS011;32493;50.514;9.678;2023-07-16T10:57:01;4.97;;;2.00;;
46745;SDS011;32493;50.514;9.678;2023-07-16T10:59:11;5.03;;;1.90;;
46745;SDS011;32493;50.514;9.678;2023-07-16T11:01:23;4.25;;;1.98;;
46745;SDS011;32493;50.514;9.678;2023-07-16T11:03:30;4.68;;;1.67;;
46745;SDS011;32493;50.514;9.678;2023-07-16T11:05:38;5.55;;;1.85;;
46745;SDS011;32493;50.514;9.678;2023-07-16T11:07:47;8.18;;;2.42;;
46745;SDS011;32493;50.514;9.678;2023-07-16T11:09:56;5.88;;;2.55;;
46745;SDS011;32493;50.514;9.678;2023-07-16T11:12:05;5.25;;;2.15;;
46745;SDS011;32493;50.514;9.678;2023-07-16T11:14:11;6.57;;;2.40;;
46745;SDS011;32493;50.514;9.678;2023-07-16T11:16:16;4.07;;;2.20;;
46745;SDS011;32493;50.514;9.678;2023-07-16T11:18:24;6.95;;;2.20;;
46745;SDS011;32493;50.514;9.678;2023-07-16T11:20:31;6.97;;;2.08;;
46745;SDS011;32493;50.514;9.678;2023-07-16T11:22:39;4.55;;;2.40;;
46745;SDS011;32493;50.514;9.678;2023-07-16T11:24:51;5.68;;;1.55;;
46745;SDS011;32493;50.514;9.678;2023-07-16T11:26:57;5.22;;;1.88;;
46745;SDS011;32493;50.514;9.678;2023-07-16T11:31:17;7.47;;;2.20;;
46745;SDS011;32493;50.514;9.678;2023-07-16T11:33:25;5.18;;;1.90;;
46745;SDS011;32493;50.514;9.678;2023-07-16T11:35:41;5.18;;;1.98;;
46745;SDS011;32493;50.514;9.678;2023-07-16T11:37:51;4.43;;;2.05;;
46745;SDS011;32493;50.514;9.678;2023-07-16T11:40:06;3.05;;;1.48;;
46745;SDS011;32493;50.514;9.678;2023-07-16T11:42:13;6.90;;;2.00;;
46745;SDS011;32493;50.514;9.678;2023-07-16T11:44:19;6.80;;;1.83;;
46745;SDS011;32493;50.514;9.678;2023-07-16T11:46:25;4.63;;;1.85;;
46745;SDS011;32493;50.514;9.678;2023-07-16T11:48:34;3.83;;;2.10;;
46745;SDS011;32493;50.514;9.678;2023-07-16T11:50:46;7.75;;;2.40;;
46745;SDS011;32493;50.514;9.678;2023-07-16T11:52:54;6.65;;;1.77;;
46745;SDS011;32493;50.514;9.678;2023-07-16T11:55:01;7.30;;;1.90;;
46745;SDS011;32493;50.514;9.678;2023-07-16T11:57:10;4.55;;;2.10;;
46745;SDS011;32493;50.514;9.678;2023-07-16T11:59:15;8.63;;;2.20;;
46745;SDS011;32493;50.514;9.678;2023-07-16T12:05:36;4.30;;;1.63;;
46745;SDS011;32493;50.514;9.678;2023-07-16T12:07:54;3.05;;;1.50;;
46745;SDS011;32493;50.514;9.678;2023-07-16T12:10:01;5.55;;;2.40;;
46745;SDS011;32493;50.514;9.678;2023-07-16T12:12:11;6.47;;;1.60;;
46745;SDS011;32493;50.514;9.678;2023-07-16T12:14:17;3.03;;;1.40;;
46745;SDS011;32493;50.514;9.678;2023-07-16T12:16:24;4.85;;;1.83;;
46745;SDS011;32493;50.514;9.678;2023-07-16T12:18:30;2.47;;;1.25;;
46745;SDS011;32493;50.514;9.678;2023-07-16T12:20:38;5.35;;;1.88;;
46745;SDS011;32493;50.514;9.678;2023-07-16T12:22:43;6.65;;;2.30;;
46745;SDS011;32493;50.514;9.678;2023-07-16T12:24:51;5.65;;;1.83;;
46745;SDS011;32493;50.514;9.678;2023-07-16T12:26:57;4.53;;;2.07;;
46745;SDS011;32493;50.514;9.678;2023-07-16T12:29:08;5.72;;;2.53;;
46745;SDS011;32493;50.514;9.678;2023-07-16T12:31:13;11.70;;;7.25;;
46745;SDS011;32493;50.514;9.678;2023-07-16T12:33:20;3.20;;;1.70;;
46745;SDS011;32493;50.514;9.678;2023-07-16T12:35:26;6.40;;;2.03;;
46745;SDS011;32493;50.514;9.678;2023-07-16T12:37:34;4.45;;;1.75;;
46745;SDS011;32493;50.514;9.678;2023-07-16T12:39:42;5.10;;;2.20;;
46745;SDS011;32493;50.514;9.678;2023-07-16T12:41:47;2.85;;;1.70;;
46745;SDS011;32493;50.514;9.678;2023-07-16T12:44:02;4.57;;;2.00;;
46745;SDS011;32493;50.514;9.678;2023-07-16T12:46:10;4.30;;;1.88;;
46745;SDS011;32493;50.514;9.678;2023-07-16T12:48:19;5.22;;;1.48;;
46745;SDS011;32493;50.514;9.678;2023-07-16T12:50:25;5.18;;;1.90;;
46745;SDS011;32493;50.514;9.678;2023-07-16T12:52:30;3.97;;;1.70;;
46745;SDS011;32493;50.514;9.678;2023-07-16T12:54:36;5.57;;;3.05;;
46745;SDS011;32493;50.514;9.678;2023-07-16T12:56:42;6.65;;;1.92;;
46745;SDS011;32493;50.514;9.678;2023-07-16T12:58:48;6.43;;;2.00;;
46745;SDS011;32493;50.514;9.678;2023-07-16T13:00:57;4.55;;;1.73;;
46745;SDS011;32493;50.514;9.678;2023-07-16T13:03:08;5.20;;;2.38;;
46745;SDS011;32493;50.514;9.678;2023-07-16T13:05:20;4.30;;;2.15;;
46745;SDS011;32493;50.514;9.678;2023-07-16T13:07:29;5.53;;;1.83;;
46745;SDS011;32493;50.514;9.678;2023-07-16T13:09:35;4.55;;;1.65;;